Time;durP1;ratioP1;P1;durP2;ratioP2;P2;SDS_P1;SDS_P2;PMS_P1;PMS_P2;Temp;Humidity;BMP_temperature;BMP_pressure;BME280_temperature;BME280_humidity;BME280_pressure;Samples;Min_cycle;Max_cycle;Signal;HPM_P1;HPM_P2
2021/07/06 05:34:29;;;;;;;5.80;5.30;;;;;;;28.53;46.89;98115.63;1718289;80;21508;-76
2021/07/06 05:36:57;;;;;;;9.18;5.80;;;;;;;28.62;47.00;98114.29;1702841;84;20953;-67
2021/07/06 05:39:25;;;;;;;12.63;6.30;;;;;;;28.75;46.96;98114.66;1713707;83;21985;-66
2021/07/06 05:41:54;;;;;;;6.47;5.83;;;;;;;28.93;46.71;98119.88;1719350;83;21540;-66
2021/07/06 05:44:24;;;;;;;7.08;5.92;;;;;;;29.10;46.33;98119.54;1719318;83;21523;-66
2021/07/06 05:46:52;;;;;;;10.90;6.42;;;;;;;29.32;45.93;98125.98;1719089;83;20995;-67
2021/07/06 05:49:18;;;;;;;6.87;5.53;;;;;;;29.47;45.10;98125.03;1719985;83;20949;-71
2021/07/06 05:51:54;;;;;;;6.37;5.62;;;;;;;29.52;45.23;98126.54;1718894;83;21517;-67
2021/07/06 05:54:32;;;;;;;6.47;5.72;;;;;;;29.58;45.01;98128.05;1719781;83;20996;-67
2021/07/06 05:57:00;;;;;;;6.45;5.85;;;;;;;29.64;45.25;98135.41;1719854;83;20983;-69
2021/07/06 05:59:28;;;;;;;6.70;5.08;;;;;;;29.71;45.21;98138.38;1719564;83;21016;-66
2021/07/06 06:01:55;;;;;;;7.37;5.58;;;;;;;29.74;44.58;98139.29;1720011;83;21275;-67
2021/07/06 06:04:23;;;;;;;5.95;5.30;;;;;;;29.74;44.69;98139.84;1719852;83;21144;-67
2021/07/06 06:06:49;;;;;;;7.35;6.67;;;;;;;29.76;44.80;98138.22;1719308;83;21584;-67
2021/07/06 06:09:16;;;;;;;6.40;5.60;;;;;;;29.81;44.75;98142.53;1719731;83;20942;-67
2021/07/06 06:11:44;;;;;;;5.45;5.05;;;;;;;29.90;44.64;98142.49;1719799;83;21026;-67
2021/07/06 06:14:11;;;;;;;5.80;5.30;;;;;;;29.99;44.50;98148.51;1719645;83;20960;-66
2021/07/06 06:16:37;;;;;;;8.30;6.20;;;;;;;30.07;44.15;98150.95;1719842;83;21124;-66
2021/07/06 06:19:04;;;;;;;5.65;5.15;;;;;;;30.17;44.05;98153.12;1719703;83;20952;-69
2021/07/06 06:21:32;;;;;;;6.10;5.60;;;;;;;30.26;43.07;98158.06;1719631;83;20989;-66
2021/07/06 06:23:59;;;;;;;6.47;5.97;;;;;;;30.21;43.02;98155.18;1719686;83;21565;-65
2021/07/06 06:26:26;;;;;;;6.33;5.75;;;;;;;30.18;42.99;98155.66;1719683;83;21497;-66
2021/07/06 06:28:52;;;;;;;10.15;5.60;;;;;;;30.13;42.96;98158.31;1719574;83;21008;-67
2021/07/06 06:31:19;;;;;;;7.80;6.87;;;;;;;30.04;43.30;98148.66;1719659;83;20964;-66
2021/07/06 06:33:45;;;;;;;6.05;5.65;;;;;;;29.97;43.61;98152.06;1720135;81;21031;-66
2021/07/06 06:36:13;;;;;;;7.50;5.47;;;;;;;30.00;43.80;98148.27;1722394;83;21023;-65
2021/07/06 06:38:40;;;;;;;8.95;8.05;;;;;;;30.09;43.82;98152.94;1722381;83;20924;-67
2021/07/06 06:41:06;;;;;;;7.45;6.75;;;;;;;30.18;44.27;98152.89;1722943;83;21109;-66
2021/07/06 06:43:33;;;;;;;9.05;5.75;;;;;;;30.31;43.37;98146.81;1722836;83;21047;-66
2021/07/06 06:46:01;;;;;;;6.62;5.97;;;;;;;30.47;42.93;98147.50;1722548;83;21016;-66
2021/07/06 06:48:27;;;;;;;6.58;5.97;;;;;;;30.62;42.72;98139.54;1722742;83;20920;-64
2021/07/06 06:50:54;;;;;;;8.80;6.37;;;;;;;30.68;42.24;98140.48;1722610;83;20980;-67
2021/07/06 06:53:20;;;;;;;9.65;6.80;;;;;;;30.76;42.27;98131.81;1722555;83;21117;-75
2021/07/06 06:55:46;;;;;;;7.50;6.15;;;;;;;30.87;41.93;98130.11;1722588;83;20964;-69
2021/07/06 06:58:12;;;;;;;7.35;6.75;;;;;;;30.94;41.80;98132.73;1722630;83;20980;-66
2021/07/06 07:00:39;;;;;;;6.70;6.20;;;;;;;31.02;41.79;98136.53;1722966;83;20925;-66
2021/07/06 07:03:05;;;;;;;6.72;6.12;;;;;;;31.08;41.93;98138.88;1722518;83;21120;-66
2021/07/06 07:05:33;;;;;;;8.00;7.17;;;;;;;31.11;41.34;98139.22;1722483;83;21201;-67
2021/07/06 07:08:01;;;;;;;6.83;6.22;;;;;;;31.18;41.52;98141.02;1722594;83;20998;-67
2021/07/06 07:10:30;;;;;;;7.37;6.15;;;;;;;31.21;41.46;98139.97;1722656;83;20940;-65
